Map

Track Data

SID SEASON NUMBER BASIN SUBBASIN NAME ISO_TIME NATURE LAT LON WMO_WIND WMO_PRES WMO_AGENCY TRACK_TYPE DIST2LAND LANDFALL IFLAG USA_AGENCY USA_ATCF_ID USA_LAT USA_LON USA_RECORD USA_STATUS USA_WIND USA_PRES USA_SSHS USA_R34_NE USA_R34_SE USA_R34_SW USA_R34_NW USA_R50_NE USA_R50_SE USA_R50_SW USA_R50_NW USA_R64_NE USA_R64_SE USA_R64_SW USA_R64_NW USA_POCI USA_ROCI USA_RMW USA_EYE TOKYO_LAT TOKYO_LON TOKYO_GRADE TOKYO_WIND TOKYO_PRES TOKYO_R50_DIR TOKYO_R50_LONG TOKYO_R50_SHORT TOKYO_R30_DIR TOKYO_R30_LONG TOKYO_R30_SHORT TOKYO_LAND CMA_LAT CMA_LON CMA_CAT CMA_WIND CMA_PRES HKO_LAT HKO_LON HKO_CAT HKO_WIND HKO_PRES NEWDELHI_LAT NEWDELHI_LON NEWDELHI_GRADE NEWDELHI_WIND NEWDELHI_PRES NEWDELHI_CI NEWDELHI_DP NEWDELHI_POCI REUNION_LAT REUNION_LON REUNION_TYPE REUNION_WIND REUNION_PRES REUNION_TNUM REUNION_CI REUNION_RMW REUNION_R34_NE REUNION_R34_SE REUNION_R34_SW REUNION_R34_NW REUNION_R50_NE REUNION_R50_SE REUNION_R50_SW REUNION_R50_NW REUNION_R64_NE REUNION_R64_SE REUNION_R64_SW REUNION_R64_NW BOM_LAT BOM_LON BOM_TYPE BOM_WIND BOM_PRES BOM_TNUM BOM_CI BOM_RMW BOM_R34_NE BOM_R34_SE BOM_R34_SW BOM_R34_NW BOM_R50_NE BOM_R50_SE BOM_R50_SW BOM_R50_NW BOM_R64_NE BOM_R64_SE BOM_R64_SW BOM_R64_NW BOM_ROCI BOM_POCI BOM_EYE BOM_POS_METHOD BOM_PRES_METHOD NADI_LAT NADI_LON NADI_CAT NADI_WIND NADI_PRES WELLINGTON_LAT WELLINGTON_LON WELLINGTON_WIND WELLINGTON_PRES DS824_LAT DS824_LON DS824_STAGE DS824_WIND DS824_PRES TD9636_LAT TD9636_LON TD9636_STAGE TD9636_WIND TD9636_PRES TD9635_LAT TD9635_LON TD9635_WIND TD9635_PRES TD9635_ROCI NEUMANN_LAT NEUMANN_LON NEUMANN_CLASS NEUMANN_WIND NEUMANN_PRES MLC_LAT MLC_LON MLC_CLASS MLC_WIND MLC_PRES USA_GUST BOM_GUST BOM_GUST_PER REUNION_GUST REUNION_GUST_PER USA_SEAHGT USA_SEARAD_NE USA_SEARAD_SE USA_SEARAD_SW USA_SEARAD_NW STORM_SPEED STORM_DIR
1933089S11053 1933 7 SI MM NOT_NAMED 1933-03-30 06:00:00 NR -10.8000 53.4000 reunion main 453 453 _____O________ -1 -10.8000 53.4000 99 9.90000 0 0
1933089S11053 1933 7 SI MM NOT_NAMED 1933-03-30 09:00:00 NR -10.7863 53.4001 main 453 444 _____P________ -1 -10.7863 53.4001 99 1 240
1933089S11053 1933 7 SI MM NOT_NAMED 1933-03-30 12:00:00 NR -10.8339 53.3439 main 444 438 _____P____O___ -1 -10.7786 53.3919 99 -11.0000 53.2000 2 1 229
1933089S11053 1933 7 SI MM NOT_NAMED 1933-03-30 15:00:00 NR -10.8715 53.3014 main 438 429 _____P____P___ -1 -10.7831 53.3670 99 -11.0483 53.1702 2 2 229
1933089S11053 1933 7 SI MM NOT_NAMED 1933-03-30 18:00:00 NR -10.9350 53.2293 main 429 414 _____P____P___ -1 -10.8058 53.3171 99 -11.1072 53.1123 2 2 231
1933089S11053 1933 7 SI MM NOT_NAMED 1933-03-30 21:00:00 NR -11.0202 53.1161 main 414 398 _____P____P___ -1 -10.8528 53.2339 99 -11.1876 52.9983 2 4 235
1933089S11053 1933 7 SI MM NOT_NAMED 1933-03-31 00:00:00 TS -11.1356 52.9373 main 389 359 _____P___OO___ -1 -10.9302 53.1089 99 -11.3000 52.8000 TC 35 -11.3000 52.8000 2 5 239
1933089S11053 1933 7 SI MM NOT_NAMED 1933-03-31 03:00:00 TS -11.2989 52.6516 main 359 310 _____P___PP___ -1 -11.0439 52.9338 99 -11.5026 52.3901 TC 35 -11.4521 52.5001 2 7 240
1933089S11053 1933 7 SI MM NOT_NAMED 1933-03-31 06:00:00 TS -11.4965 52.3000 reunion main 310 261 _____O___OP___ -1 -11.2000 52.7000 99 9.90000 -11.7000 52.0000 TC 35 -11.6404 52.1251 2 8 240
1933089S11053 1933 7 SI MM NOT_NAMED 1933-03-31 09:00:00 TS -11.7175 51.9193 main 261 222 _____P___PP___ -1 -11.4017 52.4030 99 -11.8924 51.6424 TC 35 -11.8584 51.7125 2 9 238
1933089S11053 1933 7 SI MM NOT_NAMED 1933-03-31 12:00:00 TS -11.9471 51.5516 main 222 167 _____P___OO___ -1 -11.6413 52.0548 99 -12.1000 51.3000 TC 35 -12.1000 51.3000 2 9 236
1933089S11053 1933 7 SI MM NOT_NAMED 1933-03-31 15:00:00 TS -12.2058 51.1773 main 167 112 _____P___PP___ -1 -11.9086 51.6714 99 -12.3350 50.9499 TC 35 -12.3738 50.9106 2 9 234
1933089S11053 1933 7 SI MM NOT_NAMED 1933-03-31 18:00:00 TS -12.4861 50.8007 main 112 58 _____P___OP___ -1 -12.1930 51.2691 99 -12.6000 50.6000 TC 35 -12.6651 50.5330 2 9 232
1933089S11053 1933 7 SI MM NOT_NAMED 1933-03-31 21:00:00 TS -12.7828 50.4244 main 58 21 _____P___PP___ -1 -12.4845 50.8643 99 -12.9150 50.2201 TC 35 -12.9489 50.1888 2 9 230
1933089S11053 1933 7 SI MM NOT_NAMED 1933-04-01 00:00:00 TS -13.0576 50.0911 main 21 0 _____P___OO___ -1 -12.7729 50.4734 99 -13.2000 49.9000 TC 35 -13.2000 49.9000 2 7 230
1933089S11053 1933 7 SI MM NOT_NAMED 1933-04-01 03:00:00 TS -13.2660 49.8403 main 0 0 _____P___PP___ -1 -13.0480 50.1131 99 -13.3724 49.7199 TC 35 -13.3775 49.6880 2 6 229
1933089S11053 1933 7 SI MM NOT_NAMED 1933-04-01 06:00:00 TS -13.4407 49.6440 reunion main 0 0 _____O___OP___ -1 -13.3000 49.8000 99 9.90000 -13.5000 49.6000 TC 35 -13.5222 49.5320 2 5 227
1933089S11053 1933 7 SI MM NOT_NAMED 1933-04-01 09:00:00 TS -13.5958 49.4782 main 0 0 _____P___PP___ -1 -13.4892 49.5746 99 -13.6425 49.4500 TC 35 -13.6557 49.4100 2 4 224
1933089S11053 1933 7 SI MM NOT_NAMED 1933-04-01 12:00:00 TS -13.7531 49.3298 main 0 0 _____P___OO___ -1 -13.6594 49.3893 99 -13.8000 49.3000 TC 35 -13.8000 49.3000 2 4 221
1933089S11053 1933 7 SI MM NOT_NAMED 1933-04-01 15:00:00 TS -13.9322 49.1782 main 0 0 _____P___PP___ -1 -13.8145 49.2403 99 -13.9925 49.1425 TC 35 -13.9897 49.1516 2 5 217
1933089S11053 1933 7 SI MM NOT_NAMED 1933-04-01 18:00:00 TS -14.1170 49.0454 main 0 0 _____P___OP___ -1 -13.9586 49.1236 99 -14.2000 49.0000 TC 35 -14.1925 49.0126 2 4 213
1933089S11053 1933 7 SI MM NOT_NAMED 1933-04-01 21:00:00 TS -14.3006 48.9375 main 0 0 _____P___PP___ -1 -14.0953 49.0352 99 -14.4075 48.8850 TC 35 -14.3991 48.8923 2 4 207
1933089S11053 1933 7 SI MM NOT_NAMED 1933-04-02 00:00:00 TS -14.4762 48.8570 main 0 0 _____P___OO___ -1 -14.2285 48.9711 99 -14.6000 48.8000 TC 35 -14.6000 48.8000 2 4 202
1933089S11053 1933 7 SI MM NOT_NAMED 1933-04-02 03:00:00 TS -14.6328 48.7974 main 0 0 _____P___PP___ -1 -14.3622 48.9274 99 -14.7500 48.7350 TC 35 -14.7862 48.7299 2 3 195
1933089S11053 1933 7 SI MM NOT_NAMED 1933-04-02 06:00:00 TS -14.7883 48.7633 reunion main 0 0 _____O___OP___ -1 -14.5000 48.9000 99 9.90000 -14.9000 48.7000 TC 35 -14.9649 48.6900 2 3 190
1933089S11053 1933 7 SI MM NOT_NAMED 1933-04-02 09:00:00 TS -14.9685 48.7354 main 0 0 _____P___PP___ -1 -14.6692 48.8411 99 -15.1000 48.6850 TC 35 -15.1362 48.6800 2 4 185
1933089S11053 1933 7 SI MM NOT_NAMED 1933-04-02 12:00:00 TS -15.1473 48.7334 main 0 0 _____P___OO___ -1 -14.8418 48.8003 99 -15.3000 48.7000 TC 35 -15.3000 48.7000 2 3 176
1933089S11053 1933 7 SI MM NOT_NAMED 1933-04-02 15:00:00 TS -15.3127 48.7479 main 0 0 _____P___PP___ -1 -15.0153 48.7787 99 -15.4575 48.7350 TC 35 -15.4653 48.7300 2 3 171
1933089S11053 1933 7 SI MM NOT_NAMED 1933-04-02 18:00:00 TS -15.4698 48.7892 main 0 0 _____P___OP___ -1 -15.1870 48.7775 99 -15.6000 48.8000 TC 35 -15.6224 48.7900 2 3 161
1933089S11053 1933 7 SI MM NOT_NAMED 1933-04-02 21:00:00 TS -15.6266 48.8543 main 0 0 _____P___PP___ -1 -15.3540 48.7979 99 -15.7575 48.8850 TC 35 -15.7684 48.8800 2 3 153
1933089S11053 1933 7 SI MM NOT_NAMED 1933-04-03 00:00:00 TS -15.7712 48.9470 main 0 0 _____P___OO___ -1 -15.5136 48.8410 99 -15.9000 49.0000 TC 35 -15.9000 49.0000 2 3 144
1933089S11053 1933 7 SI MM NOT_NAMED 1933-04-03 03:00:00 TS -15.8991 49.0631 main 0 0 _____P___PP___ -1 -15.6632 48.9080 99 -16.0075 49.1350 TC 35 -16.0266 49.1462 2 3 134
1933089S11053 1933 7 SI MM NOT_NAMED 1933-04-03 06:00:00 TS -16.0125 49.2066 reunion main 0 0 _____O___OP___ -1 -15.8000 49.0000 99 9.90000 -16.1000 49.3000 TC 35 -16.1376 49.3199 2 4 125
1933089S11053 1933 7 SI MM NOT_NAMED 1933-04-03 09:00:00 TS -16.1176 49.3814 main 0 0 _____P___PP___ -1 -15.9081 49.1430 99 -16.2150 49.4925 TC 35 -16.2297 49.5087 2 4 118
1933089S11053 1933 7 SI MM NOT_NAMED 1933-04-03 12:00:00 TS -16.2009 49.5724 main 0 0 _____P___OO___ -1 -16.0026 49.3171 99 -16.3000 49.7000 TC 35 -16.3000 49.7000 2 4 108
1933089S11053 1933 7 SI MM NOT_NAMED 1933-04-03 15:00:00 TS -16.2390 49.7728 main 0 0 _____P___PP___ -1 -16.0874 49.5112 99 -16.3075 49.9076 TC 35 -16.3222 49.8995 2 4 99
1933089S11053 1933 7 SI MM NOT_NAMED 1933-04-03 18:00:00 TS -16.2646 49.9699 main 15 15 _____P___OP___ -1 -16.1661 49.7144 99 -16.3000 50.1000 TC 35 -16.3276 50.0952 2 4 100
1933089S11053 1933 7 SI MM NOT_NAMED 1933-04-03 21:00:00 TS -16.3048 50.1522 main 33 33 _____P___PP___ -1 -16.2428 49.9158 99 -16.3275 50.2725 TC 35 -16.3441 50.2682 2 3 109
1933089S11053 1933 7 SI MM NOT_NAMED 1933-04-04 00:00:00 TS -16.3738 50.3015 main 46 46 _____P___OO___ -1 -16.3214 50.1046 99 -16.4000 50.4000 TC 35 -16.4000 50.4000 2 3 127
1933089S11053 1933 7 SI MM NOT_NAMED 1933-04-04 03:00:00 TS -16.4897 50.4061 main 59 59 _____P___PP___ -1 -16.4058 50.2696 99 -16.5275 50.4725 TC 35 -16.5358 50.4762 2 3 149
1933089S11053 1933 7 SI MM NOT_NAMED 1933-04-04 06:00:00 TS -16.6375 50.4700 reunion main 74 74 _____O___OP___ -1 -16.5000 50.4000 99 9.90000 -16.7000 50.5000 TC 35 -16.7124 50.5100 2 3 164
1933089S11053 1933 7 SI MM NOT_NAMED 1933-04-04 09:00:00 TS -16.8037 50.4942 main 74 74 _____P___PP___ -1 -16.6034 50.4537 99 -16.9000 50.5150 TC 35 -16.9078 50.5138 2 3 0
1933089S11053 1933 7 SI MM NOT_NAMED 1933-04-04 12:00:00 TS -16.9711 50.4918 main 77 77 _____P___OO___ -1 -16.7134 50.4753 99 -17.1000 50.5000 TC 35 -17.1000 50.5000 2 3 0
1933089S11053 1933 7 SI MM NOT_NAMED 1933-04-04 15:00:00 TS -17.1114 50.4689 main 81 77 _____P___PP___ -1 -16.8317 50.4713 99 -17.2575 50.4500 TC 35 -17.2450 50.4854 2 3 191
1933089S11053 1933 7 SI MM NOT_NAMED 1933-04-04 18:00:00 TS -17.2482 50.4353 main 77 77 _____P___OP___ -1 -16.9597 50.4483 99 -17.4000 50.4000 TC 35 -17.3850 50.4576 2 3 191
1933089S11053 1933 7 SI MM NOT_NAMED 1933-04-04 21:00:00 TS -17.3913 50.4105 main 92 92 _____P___PP___ -1 -17.0990 50.4131 99 -17.5425 50.3925 TC 35 -17.5325 50.4260 2 3 186
1933089S11053 1933 7 SI MM NOT_NAMED 1933-04-05 00:00:00 TS -17.5504 50.3907 main 96 95 _____P___OO___ -1 -17.2511 50.3721 99 -17.7000 50.4000 TC 35 -17.7000 50.4000 2 3 187
1933089S11053 1933 7 SI MM NOT_NAMED 1933-04-05 03:00:00 TS -17.7340 50.3750 main 95 95 _____P___PP___ -1 -17.4176 50.3322 99 -17.8850 50.4000 TC 35 -17.8994 50.3928 2 4 181
1933089S11053 1933 7 SI MM NOT_NAMED 1933-04-05 06:00:00 TS -17.9400 50.3642 reunion main 97 97 _____O___OP___ -1 -17.6000 50.3000 99 9.90000 -18.1000 50.4000 TC 35 -18.1200 50.3925 2 4 0
1933089S11053 1933 7 SI MM NOT_NAMED 1933-04-05 09:00:00 TS -18.1700 50.3657 main 105 105 _____P___PP___ -1 -17.8118 50.3012 99 -18.3425 50.4000 TC 35 -18.3556 50.3959 2 5 177
1933089S11053 1933 7 SI MM NOT_NAMED 1933-04-05 12:00:00 TS -18.4140 50.3688 main 107 107 _____P___OO___ -1 -18.0419 50.3065 99 -18.6000 50.4000 TC 35 -18.6000 50.4000 2 5 0
1933089S11053 1933 7 SI MM NOT_NAMED 1933-04-05 15:00:00 TS -18.6633 50.3704 main 119 119 _____P___PP___ -1 -18.2848 50.3153 99 -18.8500 50.4000 TC 35 -18.8550 50.3960 2 5 0
1933089S11053 1933 7 SI MM NOT_NAMED 1933-04-05 18:00:00 TS -18.9167 50.3733 main 128 128 _____P___OP___ -1 -18.5350 50.3274 99 -19.1000 50.4000 TC 35 -19.1150 50.3926 2 5 177
1933089S11053 1933 7 SI MM NOT_NAMED 1933-04-05 21:00:00 TS -19.1707 50.3784 main 138 138 _____P___PP___ -1 -18.7871 50.3423 99 -19.3575 50.4000 TC 35 -19.3675 50.3929 2 5 177
1933089S11053 1933 7 SI MM NOT_NAMED 1933-04-06 00:00:00 TS -19.4119 50.3865 main 143 143 _____P___OO___ -1 -19.0357 50.3596 99 -19.6000 50.4000 TC 35 -19.6000 50.4000 2 5 178
1933089S11053 1933 7 SI MM NOT_NAMED 1933-04-06 03:00:00 TS -19.6302 50.3964 main 152 152 _____P___PP___ -1 -19.2751 50.3790 99 -19.8150 50.3925 TC 35 -19.8006 50.4178 2 4 178
1933089S11053 1933 7 SI MM NOT_NAMED 1933-04-06 06:00:00 TS -19.8267 50.4142 reunion main 161 161 _____O___OP___ -1 -19.5000 50.4000 99 9.90000 -20.0000 50.4000 TC 35 -19.9800 50.4425 2 4 173
1933089S11053 1933 7 SI MM NOT_NAMED 1933-04-06 09:00:00 TS -19.9987 50.4452 main 167 167 _____P___PP___ -1 -19.6942 50.4147 99 -20.1575 50.4500 TC 35 -20.1444 50.4709 2 3 172
1933089S11053 1933 7 SI MM NOT_NAMED 1933-04-06 12:00:00 TS -20.1587 50.4769 main 178 178 _____P___OO___ -1 -19.8762 50.4308 99 -20.3000 50.5000 TC 35 -20.3000 50.5000 2 3 172
1933089S11053 1933 7 SI MM NOT_NAMED 1933-04-06 15:00:00 TS -20.3166 50.4921 main 180 180 _____P___PP___ -1 -20.0476 50.4491 99 -20.4500 50.5000 TC 35 -20.4522 50.5272 2 3 0
1933089S11053 1933 7 SI MM NOT_NAMED 1933-04-06 18:00:00 TS -20.4447 50.5039 main 182 182 _____P___OP___ -1 -20.2099 50.4703 99 -20.6000 50.5000 TC 35 -20.6025 50.5525 2 2 171
1933089S11053 1933 7 SI MM NOT_NAMED 1933-04-06 21:00:00 TS -20.5578 50.5261 main 189 189 _____P___PP___ -1 -20.3647 50.4952 99 -20.7500 50.5374 TC 35 -20.7516 50.5765 2 2 169
1933089S11053 1933 7 SI MM NOT_NAMED 1933-04-07 00:00:00 TS -20.6424 50.5497 main 189 189 _____P___OO___ -1 -20.5137 50.5246 99 -20.9000 50.6000 TC 35 -20.9000 50.6000 2 1 164
1933089S11053 1933 7 SI MM NOT_NAMED 1933-04-07 03:00:00 NR -20.6582 50.5593 main 203 203 _____P________ -1 -20.6582 50.5593 99 TC 2 2 165
1933089S11053 1933 7 SI MM NOT_NAMED 1933-04-07 06:00:00 NR -20.8000 50.6000 reunion main 207 207 _____O________ -1 -20.8000 50.6000 99 9.90000 2 3 164
1933089S11053 1933 7 SI MM NOT_NAMED 1933-04-07 09:00:00 NR -20.9403 50.6473 main 212 212 _____P________ -1 -20.9403 50.6473 99 2 3 161
1933089S11053 1933 7 SI MM NOT_NAMED 1933-04-07 12:00:00 NR -21.0795 50.7006 main 231 231 _____P________ -1 -21.0795 50.7006 99 3 160
1933089S11053 1933 7 SI MM NOT_NAMED 1933-04-07 15:00:00 NR -21.2177 50.7591 main 245 245 _____P________ -1 -21.2177 50.7591 99 3 157
1933089S11053 1933 7 SI MM NOT_NAMED 1933-04-07 18:00:00 NR -21.3552 50.8219 main 252 252 _____P________ -1 -21.3552 50.8219 99 3 157
1933089S11053 1933 7 SI MM NOT_NAMED 1933-04-07 21:00:00 NR -21.4920 50.8883 main 264 264 _____P________ -1 -21.4920 50.8883 99 3 155
1933089S11053 1933 7 SI MM NOT_NAMED 1933-04-08 00:00:00 NR -21.6283 50.9573 main 277 277 _____P________ -1 -21.6283 50.9573 99 3 155
1933089S11053 1933 7 SI MM NOT_NAMED 1933-04-08 03:00:00 NR -21.7642 51.0282 main 282 282 _____P________ -1 -21.7642 51.0282 99 3 154
1933089S11053 1933 7 SI MM NOT_NAMED 1933-04-08 06:00:00 NR -21.9000 51.1000 reunion main 294 _____O________ -1 -21.9000 51.1000 99 9.90000 3 152

About IBTrACS Database

This database is a web-friendly format of International Best Track Archive for Climate Stewardship (IBTrACS), a global best track data archive curated by NOAA dating back to 1842.

Updated: 2021-11-26